Hanjin Valencia — 3FSR7 — position and weather

sailwx.info

Track history (hours):
 
Tides and Currents Weather Stations Pressure Air Temp Water Temp Dewpoint Dewpoint Depression Visibility Wind Speed Wind Dir Waves Ship Positions

Hanjin Valencia

Last reported at 2015-Aug-04 04:33 UTC. Time now 2015-Aug-04 05:27 UTC.
Position N 31°01' E 122°42'.

Length 117 m; draft 5.5 m.

Type: Cargo ship. MMSI: 353584000.

Date/timePositionNaut miles runAvg speedWind from/ knotsBaromVisibWave heightAir tempDewpointWater temp
2015-Aug-04 04:33N 31°01' E 122°42'9 8.5
2015-Aug-04 03:33N 31°02' E 122°51'20 9.8
2015-Aug-04 01:30N 31°00' E 123°15'9 9.5
2015-Aug-04 00:34N 30°51' E 123°13'10 9.6
2015-Aug-03 23:34N 30°42' E 123°13'9 9.2
2015-Aug-03 22:34N 30°33' E 123°12'9 9.2
2015-Aug-03 21:33N 30°23' E 123°12'10 9.7
2015-Aug-03 20:32N 30°13' E 123°11'5410.9
2015-Aug-03 15:33N 29°19' E 123°09'324 9.7
2015-Aug-02 06:17N 24°39' E 120°08'810.5
2015-Aug-02 05:33N 24°33' E 120°02'12 9.8
2015-Aug-02 04:21N 24°23' E 119°55'810.2
2015-Aug-02 03:33N 24°15' E 119°55'8511.6
2015-Aug-01 20:12N 22°49' E 119°54'6 9.6
2015-Aug-01 19:33N 22°43' E 119°54'  
Track history (hours):
 
Tides and Currents Weather Stations Pressure Air Temp Water Temp Dewpoint Dewpoint Depression Visibility Wind Speed Wind Dir Waves Ship Positions

Hanjin Valencia

Last reported at 2015-Aug-04 04:33 UTC. Time now 2015-Aug-04 05:27 UTC.
Position N 31°01' E 122°42'.

Length 117 m; draft 5.5 m.

Type: Cargo ship. MMSI: 353584000.

Date/timePositionNaut miles runAvg speedWind from/ knotsBaromVisibWave heightAir tempDewpointWater temp
2015-Aug-04 04:33N 31°01' E 122°42'9 8.5
2015-Aug-04 03:33N 31°02' E 122°51'20 9.8
2015-Aug-04 01:30N 31°00' E 123°15'9 9.5
2015-Aug-04 00:34N 30°51' E 123°13'10 9.6
2015-Aug-03 23:34N 30°42' E 123°13'9 9.2
2015-Aug-03 22:34N 30°33' E 123°12'9 9.2
2015-Aug-03 21:33N 30°23' E 123°12'10 9.7
2015-Aug-03 20:32N 30°13' E 123°11'5410.9
2015-Aug-03 15:33N 29°19' E 123°09'324 9.7
2015-Aug-02 06:17N 24°39' E 120°08'810.5
2015-Aug-02 05:33N 24°33' E 120°02'12 9.8
2015-Aug-02 04:21N 24°23' E 119°55'810.2
2015-Aug-02 03:33N 24°15' E 119°55'8511.6
2015-Aug-01 20:12N 22°49' E 119°54'6 9.6
2015-Aug-01 19:33N 22°43' E 119°54'  

Dump ship's entire track history